Aérodrome :
LOGIN :

S'inscrire | Disclaimer

   EN    FR    IT 

 










Légende :    VFR   VFR Marginal   IFR   IFR Intensif   IFR Très Intensif
Visi : 
Plafond : 
>= 8 km
>= 3000ft
5 à 8 km
1000 à 3000 ft
1500m à 5 km
500 à 1000 ft
800 à 1500m
200 à 500 ft
< 800m
< 200 ft
Symboles :   Orages  Brouillard  Fortes neiges  Fortes précipitations  Vent > 20 kt
SIGMETs :   Divers  Orages  Givrage  Turbulence  Onde Orograph.  Cendres Volcan.







- Altitude de l'aérodrome : 124 ft
- Code IATA : RNS
- Voir les cartes d'approche


LFRN - Rennes

DERNIER METAR :
  • 190830Z AUTO 17007KT CAVOK 07/07 Q1010 TEMPO 19015G30KT 3000 TSRA BKN015CB

METARs EXPIRÉS :
  • 190800Z AUTO 18008KT 9999 ///TCU 07/07 Q1010 TEMPO 19015G30KT 3000 TSRA BKN015CB
  • 190730Z AUTO 18008KT CAVOK 07/07 Q1010 TEMPO 19015G30KT 3000 TSRA BKN015CB
  • 190700Z AUTO 17008KT CAVOK 07/07 Q1010 TEMPO 19015G30KT 3000 TSRA BKN015CB
  • 190630Z AUTO 18009KT CAVOK 08/07 Q1009 TEMPO 19015G30KT 3000 TSRA BKN015CB
  • 190600Z AUTO 19008KT 9999 FEW031/// OVC210/// ///TCU 08/08 Q1009 TEMPO 19015G30KT 3000 TSRA BKN015CB

TAF TAF LFRN
Valide du 19 à 06h jusqu'au 20 à 06h UTC


190500Z 1906/2006 20010KT 9999 SCT030
TEMPO 1906/2006 19015G30KT 4000 SHRA BKN015CB
PROB30
TEMPO 1906/2006 3000 TSRA
ATIS : +33 2 99 67 72 50
Pas de NOTAMs connus pour ce terrain.
1 SIGMET publié pour la FIR Brest (LFRR) :
 
Orages noyés dans la masse
LFRR SIGMET 3 VALID 190800/191000 LFPW
LFRR BREST FIR/UIR EMBD TS FCST WI N4345 W00315 - N4415 W00515 - N4700 W00315 - N4645 W00230 - N4345 W00315 TOP FL300 MOV E 30KT NC=



MET'MAP, la Météo Aéronautique d'un coup d'oeil ! - Copyright ORBIFLY Décembre 2007 - Disclaimer

ORBIFLY MET'MAP TEAM :

Programmation & Développement : Alexandra Zaïnal
Conception & Développement : Baudouin d'Aumeries
Co-Programmation & Développement : Marc-Olivier Méhu
Soutien technique & logistique : Manuel Goepfert

Contact : metmap@orbifly.com




SOURCES & CREDITS :

   NOAA